Time;durP1;ratioP1;P1;durP2;ratioP2;P2;SDS_P1;SDS_P2;PMS_P1;PMS_P2;Temp;Humidity;BMP_temperature;BMP_pressure;BME280_temperature;BME280_humidity;BME280_pressure;Samples;Min_cycle;Max_cycle;Signal;HPM_P1;HPM_P2
2023/02/03 00:00:19;;;;;;;0.20;0.20;;;;;;;;;;5036412;28;20206;-71
2023/02/03 00:02:46;;;;;;;0.20;0.20;;;;;;;;;;5060208;28;20258;-70
2023/02/03 00:05:12;;;;;;;0.23;0.23;;;;;;;;;;5036135;28;20274;-70
2023/02/03 00:07:39;;;;;;;0.20;0.20;;;;;;;;;;5060570;28;20260;-71
2023/02/03 00:10:07;;;;;;;0.20;0.20;;;;;;;;;;5045978;28;20212;-70
2023/02/03 00:12:33;;;;;;;0.20;0.20;;;;;;;;;;5034375;28;20222;-72
2023/02/03 00:15:01;;;;;;;0.20;0.20;;;;;;;;;;5045617;28;20248;-72
2023/02/03 00:17:29;;;;;;;0.43;0.43;;;;;;;;;;5051081;28;20249;-70
2023/02/03 00:19:55;;;;;;;0.20;0.20;;;;;;;;;;5045647;28;20236;-71
2023/02/03 00:22:22;;;;;;;0.20;0.20;;;;;;;;;;5050792;28;20257;-71
2023/02/03 00:24:48;;;;;;;0.20;0.20;;;;;;;;;;5045856;28;20233;-71
2023/02/03 00:27:15;;;;;;;0.20;0.20;;;;;;;;;;5050835;28;20329;-70
2023/02/03 00:29:41;;;;;;;0.20;0.20;;;;;;;;;;5045373;28;20247;-71
2023/02/03 00:32:07;;;;;;;0.20;0.20;;;;;;;;;;5050357;28;20255;-71
2023/02/03 00:34:35;;;;;;;0.20;0.20;;;;;;;;;;5045671;28;20249;-70
2023/02/03 00:37:01;;;;;;;0.20;0.20;;;;;;;;;;5049755;28;20259;-71
2023/02/03 00:39:28;;;;;;;0.20;0.20;;;;;;;;;;5046159;28;20494;-70
2023/02/03 00:41:54;;;;;;;0.20;0.20;;;;;;;;;;5048735;28;20249;-71
2023/02/03 00:44:20;;;;;;;0.20;0.20;;;;;;;;;;5046863;28;20245;-71
2023/02/03 00:46:49;;;;;;;0.20;0.20;;;;;;;;;;5047655;28;20272;-71
2023/02/03 00:49:16;;;;;;;0.20;0.20;;;;;;;;;;5047611;28;20214;-70
2023/02/03 00:51:43;;;;;;;0.20;0.20;;;;;;;;;;5046877;28;20302;-70
2023/02/03 00:54:10;;;;;;;0.20;0.20;;;;;;;;;;5048147;28;20273;-70
2023/02/03 00:56:36;;;;;;;0.27;0.27;;;;;;;;;;5046181;28;20251;-70
2023/02/03 00:59:03;;;;;;;0.20;0.20;;;;;;;;;;5048952;28;20201;-70
2023/02/03 01:01:29;;;;;;;0.20;0.20;;;;;;;;;;5045336;28;20247;-70
2023/02/03 01:03:56;;;;;;;0.20;0.20;;;;;;;;;;5049599;28;20213;-70
2023/02/03 01:06:25;;;;;;;0.20;0.20;;;;;;;;;;5044284;28;20240;-70
2023/02/03 01:08:56;;;;;;;0.20;0.20;;;;;;;;;;5050037;28;20206;-69
2023/02/03 01:11:23;;;;;;;0.20;0.20;;;;;;;;;;5044041;28;20272;-69
2023/02/03 01:13:50;;;;;;;0.20;0.20;;;;;;;;;;5049055;28;20273;-70
2023/02/03 01:16:19;;;;;;;0.20;0.20;;;;;;;;;;5043616;28;20257;-70
2023/02/03 01:18:45;;;;;;;0.20;0.20;;;;;;;;;;5050828;28;20403;-70
2023/02/03 01:21:12;;;;;;;0.23;0.23;;;;;;;;;;5042851;28;20304;-70
2023/02/03 01:23:39;;;;;;;0.20;0.20;;;;;;;;;;5051118;28;20270;-70
2023/02/03 01:26:08;;;;;;;0.30;0.30;;;;;;;;;;5041571;28;20249;-70
2023/02/03 01:28:35;;;;;;;0.20;0.20;;;;;;;;;;5051913;28;20291;-71
2023/02/03 01:31:11;;;;;;;0.20;0.20;;;;;;;;;;5041222;28;20596;-70
2023/02/03 01:33:39;;;;;;;0.20;0.20;;;;;;;;;;5051623;28;20466;-70
2023/02/03 01:36:06;;;;;;;0.20;0.20;;;;;;;;;;5041600;28;20250;-70
2023/02/03 01:38:33;;;;;;;0.20;0.20;;;;;;;;;;5052087;28;20233;-71
2023/02/03 01:40:59;;;;;;;0.20;0.20;;;;;;;;;;5040748;28;20245;-71
2023/02/03 01:43:30;;;;;;;0.20;0.20;;;;;;;;;;5052553;28;20231;-71
2023/02/03 01:45:57;;;;;;;0.20;0.20;;;;;;;;;;5040281;28;20258;-71
2023/02/03 01:48:23;;;;;;;0.20;0.20;;;;;;;;;;5052972;28;20274;-69
2023/02/03 01:50:50;;;;;;;0.20;0.20;;;;;;;;;;5039000;28;20242;-69
2023/02/03 01:53:16;;;;;;;0.20;0.20;;;;;;;;;;5054319;28;20303;-70
2023/02/03 01:55:44;;;;;;;0.20;0.20;;;;;;;;;;5038240;28;20262;-69
2023/02/03 01:58:12;;;;;;;0.20;0.20;;;;;;;;;;5054655;28;20213;-70
2023/02/03 02:00:40;;;;;;;0.20;0.20;;;;;;;;;;5037647;28;20285;-71
2023/02/03 02:03:07;;;;;;;0.20;0.20;;;;;;;;;;5054979;28;20258;-70
2023/02/03 02:05:35;;;;;;;0.20;0.20;;;;;;;;;;5037037;28;20344;-70
2023/02/03 02:08:02;;;;;;;0.20;0.20;;;;;;;;;;5055852;28;20451;-71
2023/02/03 02:10:29;;;;;;;0.27;0.27;;;;;;;;;;5036431;28;20258;-71
2023/02/03 02:12:56;;;;;;;0.20;0.20;;;;;;;;;;5056072;28;20197;-70
2023/02/03 02:15:23;;;;;;;0.20;0.20;;;;;;;;;;5035442;28;20239;-71
2023/02/03 02:18:07;;;;;;;0.20;0.20;;;;;;;;;;5057088;28;20419;-71
2023/02/03 02:20:45;;;;;;;0.20;0.20;;;;;;;;;;5036691;28;20301;-71
2023/02/03 02:23:35;;;;;;;0.20;0.20;;;;;;;;;;5053666;28;20257;-71
2023/02/03 02:26:12;;;;;;;0.20;0.20;;;;;;;;;;5040254;28;20302;-71
2023/02/03 02:28:48;;;;;;;0.20;0.20;;;;;;;;;;5050565;28;20214;-71
2023/02/03 02:31:35;;;;;;;0.20;0.20;;;;;;;;;;5041756;28;20317;-71
2023/02/03 02:34:07;;;;;;;0.20;0.20;;;;;;;;;;5040950;28;20239;-71
2023/02/03 02:36:39;;;;;;;0.20;0.20;;;;;;;;;;5044535;28;20326;-71
2023/02/03 02:39:10;;;;;;;0.20;0.20;;;;;;;;;;5047155;28;20219;-71
2023/02/03 02:41:39;;;;;;;0.20;0.20;;;;;;;;;;5044650;28;20308;-71
2023/02/03 02:44:09;;;;;;;0.20;0.20;;;;;;;;;;5046988;28;20501;-70
2023/02/03 02:46:37;;;;;;;0.20;0.20;;;;;;;;;;5044434;28;20305;-71
2023/02/03 02:49:08;;;;;;;0.70;0.70;;;;;;;;;;5047274;28;20244;-70
2023/02/03 02:51:36;;;;;;;0.20;0.20;;;;;;;;;;5044266;28;20454;-70
2023/02/03 02:54:03;;;;;;;0.20;0.20;;;;;;;;;;5047162;28;20210;-70
2023/02/03 02:56:31;;;;;;;0.20;0.20;;;;;;;;;;5043750;28;20258;-70
2023/02/03 02:58:59;;;;;;;0.20;0.20;;;;;;;;;;5047578;28;20239;-70
2023/02/03 03:01:25;;;;;;;0.20;0.20;;;;;;;;;;5042875;28;20262;-71
2023/02/03 03:03:52;;;;;;;0.20;0.20;;;;;;;;;;5048373;28;20259;-71
2023/02/03 03:06:21;;;;;;;1.00;0.93;;;;;;;;;;5042178;28;20297;-71
2023/02/03 03:08:50;;;;;;;0.20;0.20;;;;;;;;;;5049069;28;20212;-71
2023/02/03 03:11:17;;;;;;;0.20;0.20;;;;;;;;;;5041711;28;20314;-72
2023/02/03 03:13:46;;;;;;;0.20;0.20;;;;;;;;;;5049328;28;20275;-71
2023/02/03 03:16:14;;;;;;;0.20;0.20;;;;;;;;;;5041170;28;20249;-71
2023/02/03 03:18:43;;;;;;;0.20;0.20;;;;;;;;;;5049993;28;20279;-71
2023/02/03 03:21:12;;;;;;;0.20;0.20;;;;;;;;;;5040979;28;20241;-71
2023/02/03 03:23:43;;;;;;;0.20;0.20;;;;;;;;;;5049800;28;20303;-71
2023/02/03 03:26:11;;;;;;;0.20;0.20;;;;;;;;;;5040737;28;20493;-71
2023/02/03 03:28:40;;;;;;;0.20;0.20;;;;;;;;;;5049790;28;20282;-71
2023/02/03 03:31:07;;;;;;;0.30;0.30;;;;;;;;;;5040528;28;20326;-71
2023/02/03 03:33:33;;;;;;;0.20;0.20;;;;;;;;;;5050501;28;20203;-72
2023/02/03 03:36:03;;;;;;;0.20;0.20;;;;;;;;;;5039485;28;20235;-71
2023/02/03 03:38:32;;;;;;;2.00;1.50;;;;;;;;;;5054892;28;20434;-71
2023/02/03 03:41:03;;;;;;;2.93;2.73;;;;;;;;;;5042802;28;20243;-71
2023/02/03 03:43:31;;;;;;;0.20;0.20;;;;;;;;;;5054597;28;20235;-70
2023/02/03 03:45:59;;;;;;;0.20;0.20;;;;;;;;;;5042555;28;20314;-71
2023/02/03 03:48:27;;;;;;;0.20;0.20;;;;;;;;;;5054994;28;20542;-71
2023/02/03 03:50:57;;;;;;;0.20;0.20;;;;;;;;;;5042118;28;20254;-71
2023/02/03 03:53:23;;;;;;;0.20;0.20;;;;;;;;;;5055378;28;20244;-72
2023/02/03 03:55:51;;;;;;;0.20;0.20;;;;;;;;;;5041298;28;20303;-71
2023/02/03 03:58:21;;;;;;;0.20;0.20;;;;;;;;;;5056066;28;20275;-71
2023/02/03 04:00:48;;;;;;;0.20;0.20;;;;;;;;;;5041166;28;20537;-71
2023/02/03 04:03:16;;;;;;;0.20;0.20;;;;;;;;;;5055893;28;20304;-71
2023/02/03 04:05:42;;;;;;;0.20;0.20;;;;;;;;;;5040336;28;20238;-71
2023/02/03 04:08:08;;;;;;;0.50;0.50;;;;;;;;;;5057002;28;20279;-71
2023/02/03 04:10:36;;;;;;;0.10;0.10;;;;;;;;;;5039263;28;20632;-71
2023/02/03 04:13:03;;;;;;;0.20;0.20;;;;;;;;;;5057745;28;20455;-71
2023/02/03 04:15:31;;;;;;;1.80;1.73;;;;;;;;;;5038455;28;20439;-70
2023/02/03 04:17:57;;;;;;;0.47;0.47;;;;;;;;;;5058390;28;20236;-72
2023/02/03 04:20:24;;;;;;;0.20;0.20;;;;;;;;;;5037794;28;20431;-71
2023/02/03 04:22:50;;;;;;;0.20;0.20;;;;;;;;;;5058866;28;20222;-71
2023/02/03 04:25:17;;;;;;;0.10;0.10;;;;;;;;;;5036521;28;20235;-72
2023/02/03 04:27:43;;;;;;;0.20;0.20;;;;;;;;;;5059968;28;20528;-72
2023/02/03 04:30:10;;;;;;;0.20;0.20;;;;;;;;;;5035462;28;20222;-72
2023/02/03 04:32:38;;;;;;;0.13;0.13;;;;;;;;;;5060186;28;20294;-72
2023/02/03 04:35:05;;;;;;;0.20;0.20;;;;;;;;;;5045330;28;20280;-70
2023/02/03 04:37:32;;;;;;;0.20;0.20;;;;;;;;;;5050617;28;20306;-72
2023/02/03 04:39:58;;;;;;;0.23;0.23;;;;;;;;;;5045522;28;20204;-71
2023/02/03 04:42:25;;;;;;;0.10;0.10;;;;;;;;;;5050489;28;20566;-71
2023/02/03 04:44:51;;;;;;;0.20;0.20;;;;;;;;;;5045455;28;20507;-71
2023/02/03 04:47:18;;;;;;;0.97;0.97;;;;;;;;;;5050579;28;20239;-71
2023/02/03 04:49:46;;;;;;;0.20;0.20;;;;;;;;;;5045123;28;20279;-72
2023/02/03 04:52:15;;;;;;;0.20;0.20;;;;;;;;;;5050409;28;20262;-71
2023/02/03 04:54:42;;;;;;;0.10;0.10;;;;;;;;;;5044955;28;20224;-71
2023/02/03 04:57:08;;;;;;;0.20;0.20;;;;;;;;;;5050112;28;20239;-71
2023/02/03 04:59:34;;;;;;;0.97;0.63;;;;;;;;;;5044704;28;20236;-71
2023/02/03 05:02:02;;;;;;;0.30;0.30;;;;;;;;;;5049263;28;20378;-70
2023/02/03 05:04:28;;;;;;;0.20;0.20;;;;;;;;;;5045152;28;20296;-71
2023/02/03 05:06:56;;;;;;;0.20;0.20;;;;;;;;;;5048412;28;20258;-71
2023/02/03 05:09:22;;;;;;;0.43;0.43;;;;;;;;;;5046270;28;20377;-71
2023/02/03 05:11:49;;;;;;;0.33;0.33;;;;;;;;;;5047565;28;20618;-71
2023/02/03 05:14:15;;;;;;;0.47;0.47;;;;;;;;;;5047211;28;20397;-71
2023/02/03 05:16:41;;;;;;;0.57;0.57;;;;;;;;;;5046621;28;20264;-70
2023/02/03 05:19:08;;;;;;;0.20;0.20;;;;;;;;;;5047700;28;20243;-70
2023/02/03 05:21:34;;;;;;;0.40;0.40;;;;;;;;;;5045613;28;20259;-72
2023/02/03 05:24:06;;;;;;;0.40;0.40;;;;;;;;;;5048568;28;20232;-70
2023/02/03 05:26:33;;;;;;;0.20;0.20;;;;;;;;;;5044835;28;20242;-70
2023/02/03 05:28:59;;;;;;;0.20;0.20;;;;;;;;;;5048815;28;20243;-71
2023/02/03 05:31:25;;;;;;;0.57;0.57;;;;;;;;;;5044099;28;20310;-71
2023/02/03 05:33:52;;;;;;;0.20;0.20;;;;;;;;;;5049900;28;20201;-72
2023/02/03 05:36:18;;;;;;;0.60;0.60;;;;;;;;;;5043184;28;20248;-70
2023/02/03 05:38:44;;;;;;;0.20;0.20;;;;;;;;;;5050355;28;20276;-71
2023/02/03 05:43:56;;;;;;;0.20;0.20;;;;;;;;;;5048993;28;20535;-71
2023/02/03 05:46:23;;;;;;;0.20;0.20;;;;;;;;;;5043579;28;20246;-71
2023/02/03 05:48:49;;;;;;;0.20;0.20;;;;;;;;;;5049933;28;20236;-70
2023/02/03 05:51:16;;;;;;;0.20;0.20;;;;;;;;;;5042730;28;20305;-71
2023/02/03 05:53:42;;;;;;;0.10;0.10;;;;;;;;;;5050675;28;20239;-70
2023/02/03 05:56:08;;;;;;;0.20;0.20;;;;;;;;;;5041643;28;20266;-70
2023/02/03 05:58:36;;;;;;;0.13;0.13;;;;;;;;;;5051300;28;20205;-71
2023/02/03 06:01:02;;;;;;;0.20;0.20;;;;;;;;;;5039931;28;20260;-71
2023/02/03 06:03:29;;;;;;;0.13;0.13;;;;;;;;;;5052553;28;20423;-71
2023/02/03 06:05:55;;;;;;;0.20;0.20;;;;;;;;;;5039737;28;20331;-71
2023/02/03 06:08:22;;;;;;;0.20;0.20;;;;;;;;;;5052915;28;20288;-72
2023/02/03 06:10:48;;;;;;;2.20;0.63;;;;;;;;;;5038683;28;20267;-71
2023/02/03 06:13:15;;;;;;;1.53;1.43;;;;;;;;;;5053958;28;20200;-70
2023/02/03 06:15:43;;;;;;;0.40;0.40;;;;;;;;;;5037625;28;20242;-71
2023/02/03 06:18:10;;;;;;;0.30;0.30;;;;;;;;;;5054372;28;20205;-71
2023/02/03 06:20:36;;;;;;;1.43;1.33;;;;;;;;;;5037186;28;20264;-70
2023/02/03 06:23:03;;;;;;;0.30;0.30;;;;;;;;;;5054933;28;20280;-71
2023/02/03 06:25:30;;;;;;;0.20;0.20;;;;;;;;;;5036212;28;20308;-71
2023/02/03 06:27:57;;;;;;;0.20;0.20;;;;;;;;;;5056093;28;20195;-71
2023/02/03 06:30:23;;;;;;;0.20;0.20;;;;;;;;;;5035142;28;20349;-71
2023/02/03 06:32:51;;;;;;;0.30;0.30;;;;;;;;;;5056804;28;20484;-71
2023/02/03 06:35:17;;;;;;;0.20;0.20;;;;;;;;;;5034556;28;20239;-71
2023/02/03 06:37:44;;;;;;;0.20;0.20;;;;;;;;;;5057587;28;20463;-71
2023/02/03 06:40:11;;;;;;;5.20;2.73;;;;;;;;;;5033418;28;20468;-70
2023/02/03 06:42:37;;;;;;;0.37;0.37;;;;;;;;;;5058092;28;20192;-71
2023/02/03 06:45:04;;;;;;;0.67;0.67;;;;;;;;;;5043058;28;20264;-70
2023/02/03 06:47:30;;;;;;;0.20;0.20;;;;;;;;;;5048553;28;20248;-70
2023/02/03 06:49:58;;;;;;;0.40;0.40;;;;;;;;;;5043490;28;20204;-70
2023/02/03 06:52:24;;;;;;;0.40;0.40;;;;;;;;;;5048536;28;20314;-71
2023/02/03 06:54:51;;;;;;;0.20;0.20;;;;;;;;;;5043153;28;20210;-70
2023/02/03 06:57:17;;;;;;;0.20;0.20;;;;;;;;;;5048481;28;20259;-70
2023/02/03 06:59:44;;;;;;;0.20;0.20;;;;;;;;;;5043242;28;20489;-70
2023/02/03 07:02:10;;;;;;;0.10;0.10;;;;;;;;;;5048498;28;20244;-70
2023/02/03 07:04:37;;;;;;;0.20;0.20;;;;;;;;;;5043374;28;20583;-70
2023/02/03 07:07:05;;;;;;;0.30;0.30;;;;;;;;;;5047983;28;20501;-71
2023/02/03 07:09:31;;;;;;;0.63;0.63;;;;;;;;;;5043551;28;20243;-71
2023/02/03 07:11:58;;;;;;;0.17;0.17;;;;;;;;;;5048801;28;20266;-71
2023/02/03 07:14:24;;;;;;;0.20;0.20;;;;;;;;;;5048255;28;20530;-71
2023/02/03 07:16:50;;;;;;;0.10;0.10;;;;;;;;;;5049874;28;20508;-71
2023/02/03 07:19:17;;;;;;;0.20;0.20;;;;;;;;;;5049185;28;20447;-71
2023/02/03 07:21:43;;;;;;;0.30;0.30;;;;;;;;;;5049016;28;20244;-70
2023/02/03 07:24:11;;;;;;;0.20;0.20;;;;;;;;;;5049581;28;20259;-71
2023/02/03 07:26:38;;;;;;;0.10;0.10;;;;;;;;;;5048131;28;20240;-71
2023/02/03 07:29:04;;;;;;;0.20;0.20;;;;;;;;;;5050417;28;20212;-72
2023/02/03 07:31:31;;;;;;;0.27;0.27;;;;;;;;;;5046968;28;20245;-71
2023/02/03 07:33:57;;;;;;;0.20;0.20;;;;;;;;;;5051424;28;20200;-71
2023/02/03 07:36:24;;;;;;;0.20;0.20;;;;;;;;;;5046129;28;20263;-71
2023/02/03 07:38:50;;;;;;;0.20;0.20;;;;;;;;;;5051902;28;20213;-71
2023/02/03 07:41:18;;;;;;;0.10;0.10;;;;;;;;;;5045327;28;20306;-71
2023/02/03 07:43:44;;;;;;;1.03;1.03;;;;;;;;;;5052824;28;20416;-70
2023/02/03 07:46:11;;;;;;;0.20;0.20;;;;;;;;;;5044408;28;20312;-71
2023/02/03 07:48:37;;;;;;;0.20;0.20;;;;;;;;;;5053449;28;20278;-74
2023/02/03 07:51:04;;;;;;;0.27;0.27;;;;;;;;;;5043255;28;20308;-70
2023/02/03 07:53:31;;;;;;;0.20;0.20;;;;;;;;;;5054340;28;20202;-69
2023/02/03 07:55:59;;;;;;;0.20;0.20;;;;;;;;;;5042610;28;20311;-69
2023/02/03 07:58:27;;;;;;;0.20;0.20;;;;;;;;;;5055025;28;20206;-70
2023/02/03 08:00:53;;;;;;;0.53;0.53;;;;;;;;;;5041945;28;20470;-69
2023/02/03 08:03:19;;;;;;;0.10;0.10;;;;;;;;;;5055839;28;20244;-70
2023/02/03 08:05:46;;;;;;;0.40;0.40;;;;;;;;;;5040357;28;20249;-69
2023/02/03 08:08:13;;;;;;;0.20;0.20;;;;;;;;;;5056672;28;20238;-69
2023/02/03 08:10:39;;;;;;;0.20;0.20;;;;;;;;;;5039890;28;20303;-68
2023/02/03 08:13:06;;;;;;;0.10;0.10;;;;;;;;;;5057014;28;20186;-69
2023/02/03 08:15:33;;;;;;;0.10;0.10;;;;;;;;;;5038916;28;20300;-69
2023/02/03 08:18:00;;;;;;;1.13;0.80;;;;;;;;;;5058256;28;20340;-68
2023/02/03 08:20:26;;;;;;;0.13;0.13;;;;;;;;;;5038134;28;20449;-69
2023/02/03 08:22:53;;;;;;;0.20;0.20;;;;;;;;;;5058483;28;20201;-69
2023/02/03 08:25:19;;;;;;;0.10;0.10;;;;;;;;;;5037096;28;20293;-69
2023/02/03 08:27:45;;;;;;;0.10;0.10;;;;;;;;;;5059372;28;20233;-69
2023/02/03 08:30:13;;;;;;;0.20;0.20;;;;;;;;;;5035797;28;20250;-68
2023/02/03 08:32:41;;;;;;;0.10;0.10;;;;;;;;;;5060117;28;20263;-69
2023/02/03 08:35:07;;;;;;;0.20;0.20;;;;;;;;;;5041485;28;20540;-69
2023/02/03 08:37:34;;;;;;;0.20;0.20;;;;;;;;;;5060910;28;20408;-68
2023/02/03 08:40:00;;;;;;;0.10;0.10;;;;;;;;;;5045253;28;20204;-69
2023/02/03 08:42:27;;;;;;;0.83;0.83;;;;;;;;;;5050659;28;20251;-71
2023/02/03 08:44:53;;;;;;;0.10;0.10;;;;;;;;;;5045456;28;20587;-69
2023/02/03 08:47:19;;;;;;;1.30;0.67;;;;;;;;;;5050549;28;20235;-69
2023/02/03 08:49:47;;;;;;;0.17;0.17;;;;;;;;;;5044976;28;20206;-69
2023/02/03 08:52:14;;;;;;;0.20;0.20;;;;;;;;;;5050390;28;20631;-69
2023/02/03 08:54:41;;;;;;;0.10;0.10;;;;;;;;;;5045354;28;20271;-69
2023/02/03 08:57:08;;;;;;;0.10;0.10;;;;;;;;;;5050342;28;20260;-68
2023/02/03 08:59:35;;;;;;;0.20;0.20;;;;;;;;;;5044860;28;20272;-69
2023/02/03 09:02:01;;;;;;;0.20;0.20;;;;;;;;;;5049409;28;20246;-68
2023/02/03 09:04:27;;;;;;;0.10;0.10;;;;;;;;;;5045557;28;20301;-68
2023/02/03 09:06:55;;;;;;;0.20;0.20;;;;;;;;;;5048430;28;20595;-68
2023/02/03 09:09:22;;;;;;;0.20;0.20;;;;;;;;;;5046275;28;20238;-69
2023/02/03 09:11:49;;;;;;;0.10;0.10;;;;;;;;;;5047731;28;20309;-69
2023/02/03 09:14:15;;;;;;;0.20;0.20;;;;;;;;;;5047009;28;20202;-69
2023/02/03 09:16:42;;;;;;;0.10;0.10;;;;;;;;;;5046062;28;20251;-69
2023/02/03 09:19:08;;;;;;;0.10;0.10;;;;;;;;;;5048226;28;20204;-69
2023/02/03 09:21:34;;;;;;;0.10;0.10;;;;;;;;;;5045617;28;20320;-69
2023/02/03 09:24:03;;;;;;;0.20;0.20;;;;;;;;;;5048866;28;20534;-68
2023/02/03 09:26:29;;;;;;;0.10;0.10;;;;;;;;;;5044565;28;20268;-69
2023/02/03 09:28:55;;;;;;;0.10;0.10;;;;;;;;;;5049067;28;20253;-69
2023/02/03 09:31:22;;;;;;;0.10;0.10;;;;;;;;;;5043728;28;20238;-68
2023/02/03 09:33:48;;;;;;;0.10;0.10;;;;;;;;;;5049630;28;20212;-68
2023/02/03 09:36:15;;;;;;;0.17;0.17;;;;;;;;;;5042473;28;20236;-69
2023/02/03 09:38:41;;;;;;;0.30;0.30;;;;;;;;;;5051224;28;20454;-68
2023/02/03 09:41:15;;;;;;;0.20;0.20;;;;;;;;;;5041859;28;20256;-69
2023/02/03 09:43:43;;;;;;;0.10;0.10;;;;;;;;;;5050889;28;20261;-69
2023/02/03 09:46:12;;;;;;;0.10;0.10;;;;;;;;;;5041170;28;20261;-69
2023/02/03 09:48:42;;;;;;;8.27;7.63;;;;;;;;;;5052133;28;20273;-68
2023/02/03 09:51:13;;;;;;;0.20;0.20;;;;;;;;;;5041611;28;20253;-68
2023/02/03 09:53:44;;;;;;;0.10;0.10;;;;;;;;;;5051272;28;20266;-68
2023/02/03 09:56:12;;;;;;;0.20;0.20;;;;;;;;;;5041424;28;20320;-69
2023/02/03 09:58:40;;;;;;;0.17;0.17;;;;;;;;;;5051410;28;20274;-69
2023/02/03 10:01:09;;;;;;;0.20;0.20;;;;;;;;;;5041191;28;20241;-69
2023/02/03 10:03:36;;;;;;;0.13;0.13;;;;;;;;;;5051617;28;20456;-69
2023/02/03 10:06:18;;;;;;;0.10;0.10;;;;;;;;;;5040618;28;20250;-69
2023/02/03 10:09:02;;;;;;;0.20;0.20;;;;;;;;;;5050173;28;20270;-69
2023/02/03 10:11:34;;;;;;;0.17;0.17;;;;;;;;;;5040256;28;20240;-72
2023/02/03 10:14:09;;;;;;;0.10;0.10;;;;;;;;;;5047780;28;20195;-69
2023/02/03 10:16:43;;;;;;;0.10;0.10;;;;;;;;;;5044648;28;20285;-71
2023/02/03 10:19:10;;;;;;;0.10;0.10;;;;;;;;;;5047153;28;20507;-69
2023/02/03 10:21:38;;;;;;;0.10;0.10;;;;;;;;;;5044672;28;20305;-69
2023/02/03 10:24:06;;;;;;;0.20;0.20;;;;;;;;;;5047772;28;20211;-69
2023/02/03 10:26:32;;;;;;;0.20;0.20;;;;;;;;;;5044331;28;20430;-69
2023/02/03 10:29:05;;;;;;;0.20;0.20;;;;;;;;;;5048031;28;20220;-69
2023/02/03 10:31:34;;;;;;;0.87;0.87;;;;;;;;;;5044073;28;20265;-69
2023/02/03 10:34:04;;;;;;;0.10;0.10;;;;;;;;;;5047792;28;20199;-69
2023/02/03 10:36:35;;;;;;;0.17;0.17;;;;;;;;;;5044039;28;20265;-69
2023/02/03 10:39:04;;;;;;;0.20;0.20;;;;;;;;;;5047863;28;20193;-74
2023/02/03 10:41:31;;;;;;;0.13;0.13;;;;;;;;;;5043792;28;20244;-69
2023/02/03 10:43:58;;;;;;;0.10;0.10;;;;;;;;;;5047961;28;20213;-70
2023/02/03 10:46:27;;;;;;;0.13;0.13;;;;;;;;;;5045591;28;20613;-69
2023/02/03 10:48:55;;;;;;;0.10;0.10;;;;;;;;;;5052787;28;20418;-69
2023/02/03 10:51:22;;;;;;;0.10;0.10;;;;;;;;;;5046673;28;20302;-69
2023/02/03 10:53:52;;;;;;;0.20;0.20;;;;;;;;;;5053059;28;20271;-68
2023/02/03 10:56:19;;;;;;;0.10;0.10;;;;;;;;;;5046423;28;20253;-68
2023/02/03 10:58:49;;;;;;;0.10;0.10;;;;;;;;;;5053626;28;20206;-68
2023/02/03 11:01:17;;;;;;;0.10;0.10;;;;;;;;;;5045901;28;20302;-68
2023/02/03 11:03:44;;;;;;;0.10;0.10;;;;;;;;;;5053921;28;20275;-67
2023/02/03 11:06:13;;;;;;;0.10;0.10;;;;;;;;;;5045219;28;20620;-68
2023/02/03 11:08:40;;;;;;;0.10;0.10;;;;;;;;;;5054248;28;20235;-67
2023/02/03 11:11:07;;;;;;;0.10;0.10;;;;;;;;;;5044621;28;20242;-68
2023/02/03 11:13:34;;;;;;;0.10;0.10;;;;;;;;;;5055022;28;20424;-68
2023/02/03 11:16:01;;;;;;;0.10;0.10;;;;;;;;;;5043645;28;20240;-68
2023/02/03 11:18:46;;;;;;;0.17;0.17;;;;;;;;;;5056378;28;20239;-68
2023/02/03 11:21:15;;;;;;;0.27;0.27;;;;;;;;;;5045271;28;20275;-68
2023/02/03 11:23:44;;;;;;;0.10;0.10;;;;;;;;;;5053612;28;20275;-68
2023/02/03 11:26:13;;;;;;;0.10;0.10;;;;;;;;;;5044984;28;20563;-69
2023/02/03 11:28:42;;;;;;;0.10;0.10;;;;;;;;;;5053595;28;20278;-68
2023/02/03 11:31:16;;;;;;;0.20;0.20;;;;;;;;;;5044552;28;20236;-69
2023/02/03 11:33:46;;;;;;;0.10;0.10;;;;;;;;;;5053359;28;20232;-68
2023/02/03 11:36:13;;;;;;;0.10;0.10;;;;;;;;;;5044934;28;20246;-70
2023/02/03 11:38:43;;;;;;;0.10;0.10;;;;;;;;;;5053608;28;20205;-70
2023/02/03 11:41:15;;;;;;;0.10;0.10;;;;;;;;;;5043401;28;20439;-70
2023/02/03 11:43:42;;;;;;;0.10;0.10;;;;;;;;;;5053311;28;20315;-70
2023/02/03 11:46:08;;;;;;;0.10;0.10;;;;;;;;;;5044165;28;20265;-69
2023/02/03 11:48:36;;;;;;;0.10;0.10;;;;;;;;;;5054135;28;20247;-70
2023/02/03 11:51:04;;;;;;;0.20;0.20;;;;;;;;;;5043580;28;20251;-70
2023/02/03 11:53:37;;;;;;;0.10;0.10;;;;;;;;;;5054470;28;20429;-70
2023/02/03 11:56:18;;;;;;;0.10;0.10;;;;;;;;;;5043593;28;20303;-71
2023/02/03 11:58:53;;;;;;;0.10;0.10;;;;;;;;;;5051928;28;20230;-70
2023/02/03 12:01:24;;;;;;;0.10;0.10;;;;;;;;;;5045354;28;20497;-70
2023/02/03 12:04:01;;;;;;;0.10;0.10;;;;;;;;;;5051889;28;20207;-70
2023/02/03 12:06:43;;;;;;;0.10;0.10;;;;;;;;;;5046501;28;20676;-70
2023/02/03 12:09:19;;;;;;;0.10;0.10;;;;;;;;;;5049136;28;20229;-70
2023/02/03 12:11:57;;;;;;;0.10;0.10;;;;;;;;;;5048570;28;20441;-70
2023/02/03 12:14:30;;;;;;;0.10;0.10;;;;;;;;;;5047520;28;20238;-70
2023/02/03 12:17:04;;;;;;;0.10;0.10;;;;;;;;;;5049933;28;20305;-70
2023/02/03 12:19:37;;;;;;;0.10;0.10;;;;;;;;;;5046417;28;20222;-70
2023/02/03 12:22:08;;;;;;;0.10;0.10;;;;;;;;;;5050642;28;20267;-70
2023/02/03 12:24:41;;;;;;;0.10;0.10;;;;;;;;;;5045644;28;20232;-70
2023/02/03 12:27:15;;;;;;;0.20;0.20;;;;;;;;;;5050927;28;20325;-70
2023/02/03 12:29:43;;;;;;;0.10;0.10;;;;;;;;;;5045494;28;20283;-70
2023/02/03 12:32:14;;;;;;;0.10;0.10;;;;;;;;;;5051100;28;20258;-70
2023/02/03 12:34:43;;;;;;;0.10;0.10;;;;;;;;;;5045843;28;20442;-70
2023/02/03 12:37:12;;;;;;;0.10;0.10;;;;;;;;;;5050751;28;20307;-70
2023/02/03 12:39:41;;;;;;;0.10;0.10;;;;;;;;;;5045303;28;20275;-70
2023/02/03 12:42:12;;;;;;;0.10;0.10;;;;;;;;;;5050724;28;20251;-70
2023/02/03 12:44:43;;;;;;;0.30;0.30;;;;;;;;;;5045694;28;20437;-69
2023/02/03 12:47:13;;;;;;;0.10;0.10;;;;;;;;;;5050567;28;20249;-69
2023/02/03 12:49:42;;;;;;;0.10;0.10;;;;;;;;;;5045561;28;20207;-70
2023/02/03 12:52:12;;;;;;;0.10;0.10;;;;;;;;;;5050535;28;20250;-70
2023/02/03 12:54:44;;;;;;;0.30;0.30;;;;;;;;;;5045215;28;20214;-69
2023/02/03 12:57:20;;;;;;;0.10;0.10;;;;;;;;;;5050433;28;20430;-69
2023/02/03 12:59:57;;;;;;;0.10;0.10;;;;;;;;;;5045404;28;20272;-69
2023/02/03 13:02:26;;;;;;;0.10;0.10;;;;;;;;;;5050428;28;20260;-69
2023/02/03 13:04:54;;;;;;;0.20;0.20;;;;;;;;;;5045182;28;20239;-70
2023/02/03 13:07:25;;;;;;;0.20;0.20;;;;;;;;;;5050241;28;20313;-70
2023/02/03 13:09:56;;;;;;;0.10;0.10;;;;;;;;;;5043793;28;20238;-71
2023/02/03 13:12:27;;;;;;;0.10;0.10;;;;;;;;;;5050192;28;20265;-70
2023/02/03 13:14:58;;;;;;;0.13;0.13;;;;;;;;;;5044999;28;20392;-71
2023/02/03 13:17:27;;;;;;;0.20;0.20;;;;;;;;;;5050206;28;20240;-71
2023/02/03 13:19:55;;;;;;;0.10;0.10;;;;;;;;;;5044991;28;20207;-70
2023/02/03 13:22:23;;;;;;;0.10;0.10;;;;;;;;;;5050013;28;20252;-70
2023/02/03 13:24:51;;;;;;;0.10;0.10;;;;;;;;;;5044761;28;20391;-71
2023/02/03 13:27:23;;;;;;;0.20;0.20;;;;;;;;;;5049925;28;20253;-70
2023/02/03 13:30:01;;;;;;;0.10;0.10;;;;;;;;;;5044717;28;20212;-72
2023/02/03 13:32:35;;;;;;;0.10;0.10;;;;;;;;;;5049764;28;20259;-71
2023/02/03 13:35:10;;;;;;;0.10;0.10;;;;;;;;;;5044423;28;20236;-72
2023/02/03 13:37:57;;;;;;;0.10;0.10;;;;;;;;;;5032959;28;20212;-73
2023/02/03 13:40:30;;;;;;;0.10;0.10;;;;;;;;;;5036144;28;20234;-73
2023/02/03 13:42:58;;;;;;;0.10;0.10;;;;;;;;;;5056617;28;20233;-72
2023/02/03 13:45:28;;;;;;;0.10;0.10;;;;;;;;;;5036402;28;20204;-72
2023/02/03 13:47:56;;;;;;;0.10;0.10;;;;;;;;;;5057162;28;20374;-71
2023/02/03 13:50:23;;;;;;;0.13;0.13;;;;;;;;;;5035698;28;20239;-72
2023/02/03 13:52:55;;;;;;;0.10;0.10;;;;;;;;;;5057512;28;20273;-73
2023/02/03 13:55:26;;;;;;;0.20;0.20;;;;;;;;;;5035889;28;20237;-73
2023/02/03 13:57:53;;;;;;;0.20;0.20;;;;;;;;;;5056933;28;20239;-71
2023/02/03 14:00:34;;;;;;;0.10;0.10;;;;;;;;;;5035393;28;20429;-70
2023/02/03 14:03:02;;;;;;;0.10;0.10;;;;;;;;;;5055235;28;20245;-70
2023/02/03 14:05:39;;;;;;;0.10;0.10;;;;;;;;;;5036445;28;20497;-71
2023/02/03 14:08:20;;;;;;;0.10;0.10;;;;;;;;;;5055262;28;20275;-70
2023/02/03 14:10:46;;;;;;;0.10;0.10;;;;;;;;;;5034068;28;20462;-71
2023/02/03 14:13:19;;;;;;;0.10;0.10;;;;;;;;;;5054279;28;20535;-71
2023/02/03 14:16:00;;;;;;;0.10;0.10;;;;;;;;;;5038548;28;20239;-71
2023/02/03 14:18:35;;;;;;;0.10;0.10;;;;;;;;;;5052660;28;20276;-71
2023/02/03 14:21:12;;;;;;;0.10;0.10;;;;;;;;;;5040128;28;20285;-71
2023/02/03 14:23:41;;;;;;;0.10;0.10;;;;;;;;;;5050771;28;20276;-71
2023/02/03 14:26:15;;;;;;;0.10;0.10;;;;;;;;;;5041155;28;20227;-71
2023/02/03 14:28:42;;;;;;;0.10;0.10;;;;;;;;;;5049806;28;20224;-71
2023/02/03 14:31:14;;;;;;;0.10;0.10;;;;;;;;;;5041278;28;20247;-71
2023/02/03 14:33:59;;;;;;;0.10;0.10;;;;;;;;;;5050369;28;20219;-71
2023/02/03 14:36:31;;;;;;;0.10;0.10;;;;;;;;;;5043705;28;20250;-70
2023/02/03 14:39:00;;;;;;;0.10;0.10;;;;;;;;;;5048220;28;20459;-71
2023/02/03 14:41:29;;;;;;;0.10;0.10;;;;;;;;;;5043612;28;20448;-70
2023/02/03 14:44:00;;;;;;;0.10;0.10;;;;;;;;;;5048168;28;20207;-72
2023/02/03 14:46:36;;;;;;;0.10;0.10;;;;;;;;;;5043396;28;20238;-71
2023/02/03 14:49:17;;;;;;;0.10;0.10;;;;;;;;;;5047547;28;20446;-71
2023/02/03 14:51:56;;;;;;;0.20;0.20;;;;;;;;;;5045658;28;20252;-71
2023/02/03 14:54:28;;;;;;;0.10;0.10;;;;;;;;;;5044539;28;20559;-71